createdAt,value
2023-04-23T00:00:00.350Z,2.20
2023-04-23T00:01:00.307Z,2.10
2023-04-23T00:02:00.290Z,2.20
2023-04-23T00:03:00.445Z,2.10
2023-04-23T00:04:00.387Z,3.10
2023-04-23T00:05:00.535Z,1.80
2023-04-23T00:06:00.249Z,2.20
2023-04-23T00:07:00.255Z,2.60
2023-04-23T00:08:00.221Z,3.20
2023-04-23T00:09:00.212Z,2.40
2023-04-23T00:10:00.243Z,1.90
2023-04-23T00:11:00.201Z,2.00
2023-04-23T00:12:00.228Z,2.80
2023-04-23T00:13:00.177Z,2.50
2023-04-23T00:14:00.176Z,2.40
2023-04-23T00:15:00.184Z,2.00
2023-04-23T00:16:00.410Z,4.10
2023-04-23T00:17:00.165Z,2.50
2023-04-23T00:18:00.197Z,2.70
2023-04-23T00:19:00.119Z,2.20
2023-04-23T00:20:00.124Z,2.80
2023-04-23T00:21:00.124Z,2.40
2023-04-23T00:22:00.105Z,2.40
2023-04-23T00:23:00.084Z,2.70
2023-04-23T00:24:00.075Z,2.40
2023-04-23T00:25:00.062Z,3.80
2023-04-23T00:26:00.100Z,2.40
2023-04-23T00:27:00.022Z,2.40
2023-04-23T00:28:00.061Z,2.20
2023-04-23T00:29:00.029Z,2.30
2023-04-23T00:30:00.006Z,2.10
2023-04-23T00:31:00.003Z,3.10
2023-04-23T00:32:00.009Z,2.60
2023-04-23T00:32:59.998Z,2.60
2023-04-23T00:33:59.986Z,2.60
2023-04-23T00:34:59.958Z,2.80
2023-04-23T00:35:59.937Z,3.40
2023-04-23T00:36:59.927Z,2.80
2023-04-23T00:37:59.921Z,2.90
2023-04-23T00:38:59.971Z,3.10
2023-04-23T00:39:59.899Z,2.80
2023-04-23T00:40:59.909Z,3.20
2023-04-23T00:41:59.905Z,2.60
2023-04-23T00:42:59.873Z,3.00
2023-04-23T00:43:59.903Z,2.90
2023-04-23T00:44:59.855Z,3.00
2023-04-23T00:45:59.859Z,3.60
2023-04-23T00:46:59.831Z,3.80
2023-04-23T00:48:00.049Z,3.20
2023-04-23T00:48:59.810Z,3.10
2023-04-23T00:49:59.785Z,3.90
2023-04-23T00:50:59.789Z,3.00
2023-04-23T00:51:59.775Z,4.60
2023-04-23T00:52:59.790Z,3.40
2023-04-23T00:53:59.749Z,2.90
2023-04-23T00:54:59.742Z,3.10
2023-04-23T00:55:59.737Z,3.40
2023-04-23T00:56:59.765Z,3.40
2023-04-23T00:57:59.727Z,3.20
2023-04-23T00:58:59.695Z,4.60
2023-04-23T00:59:59.685Z,3.40
2023-04-23T01:00:59.732Z,4.60
2023-04-23T01:01:59.659Z,4.20
2023-04-23T01:02:59.828Z,4.20
2023-04-23T01:03:59.816Z,3.10
2023-04-23T01:04:59.657Z,3.50
2023-04-23T01:05:59.625Z,3.70
2023-04-23T01:06:59.616Z,4.30
2023-04-23T01:07:59.609Z,3.90
2023-04-23T01:08:59.645Z,3.70
2023-04-23T01:09:59.573Z,3.40
2023-04-23T01:10:59.583Z,4.10
2023-04-23T01:11:59.561Z,3.60
2023-04-23T01:12:59.603Z,4.80
2023-04-23T01:13:59.564Z,4.30
2023-04-23T01:14:59.543Z,3.90
2023-04-23T01:15:59.525Z,4.10
2023-04-23T01:16:59.533Z,4.90
2023-04-23T01:17:59.560Z,4.00
2023-04-23T01:18:59.513Z,5.30
2023-04-23T01:19:59.488Z,4.60
2023-04-23T01:20:59.507Z,4.30
2023-04-23T01:21:59.502Z,4.20
2023-04-23T01:22:59.498Z,5.40
2023-04-23T01:23:59.492Z,5.00
2023-04-23T01:24:59.438Z,4.80
2023-04-23T01:25:59.492Z,4.50
2023-04-23T01:26:59.432Z,4.20
2023-04-23T01:27:59.457Z,4.80
2023-04-23T01:28:59.457Z,4.10
2023-04-23T01:29:59.379Z,5.60
2023-04-23T01:30:59.414Z,4.40
2023-04-23T01:31:59.355Z,5.10
2023-04-23T01:32:59.425Z,5.40
2023-04-23T01:33:59.363Z,4.50
2023-04-23T01:34:59.349Z,4.40
2023-04-23T01:35:59.308Z,5.00
2023-04-23T01:36:59.420Z,5.50
2023-04-23T01:37:59.292Z,5.40
2023-04-23T01:38:59.275Z,5.00
2023-04-23T01:39:59.295Z,4.50
2023-04-23T01:40:59.271Z,4.90
2023-04-23T01:41:59.261Z,4.60
2023-04-23T01:42:59.250Z,7.60
2023-04-23T01:43:59.258Z,5.60
2023-04-23T01:44:59.223Z,5.60
2023-04-23T01:45:59.266Z,5.50
2023-04-23T01:46:59.200Z,5.20
2023-04-23T01:47:59.242Z,5.80
2023-04-23T01:48:59.179Z,5.50
2023-04-23T01:49:59.183Z,5.70
2023-04-23T01:50:59.180Z,5.40
2023-04-23T01:51:59.158Z,5.70
2023-04-23T01:52:59.135Z,5.50
2023-04-23T01:53:59.178Z,5.90
2023-04-23T01:54:59.146Z,5.90
2023-04-23T01:55:59.166Z,7.20
2023-04-23T01:56:59.125Z,6.80
2023-04-23T01:57:59.105Z,5.70
2023-04-23T01:58:59.107Z,5.90
2023-04-23T01:59:59.067Z,5.80
2023-04-23T02:00:59.101Z,5.80
2023-04-23T02:01:59.110Z,6.40
2023-04-23T02:02:59.098Z,6.70
2023-04-23T02:03:59.217Z,6.30
2023-04-23T02:04:59.052Z,5.80
2023-04-23T02:05:59.006Z,6.00
2023-04-23T02:06:59.037Z,5.80
2023-04-23T02:07:59.001Z,6.40
2023-04-23T02:08:59.026Z,6.30
2023-04-23T02:09:58.983Z,6.00
2023-04-23T02:10:59.043Z,6.30
2023-04-23T02:11:58.980Z,6.00
2023-04-23T02:12:58.960Z,6.60
2023-04-23T02:13:58.936Z,6.60
2023-04-23T02:14:58.930Z,7.00
2023-04-23T02:15:58.950Z,6.00
2023-04-23T02:16:58.925Z,6.10
2023-04-23T02:17:58.944Z,6.80
2023-04-23T02:18:58.890Z,6.70
2023-04-23T02:19:58.883Z,6.30
2023-04-23T02:20:58.894Z,7.20
2023-04-23T02:21:58.869Z,6.80
2023-04-23T02:22:58.863Z,6.50
2023-04-23T02:23:58.843Z,7.10
2023-04-23T02:24:58.851Z,8.30
2023-04-23T02:25:58.813Z,6.80
2023-04-23T02:26:58.818Z,7.40
2023-04-23T02:27:58.796Z,7.70
2023-04-23T02:28:58.797Z,7.40
2023-04-23T02:29:58.800Z,7.20
2023-04-23T02:30:58.805Z,6.80
2023-04-23T02:31:58.793Z,6.70
2023-04-23T02:32:58.817Z,7.40
2023-04-23T02:33:58.758Z,8.30
2023-04-23T02:34:58.737Z,7.60
2023-04-23T02:35:58.716Z,7.70
2023-04-23T02:36:58.745Z,7.80
2023-04-23T02:37:58.729Z,7.30
2023-04-23T02:38:58.692Z,7.30
2023-04-23T02:39:58.676Z,7.50
2023-04-23T02:40:58.673Z,8.70
2023-04-23T02:41:58.657Z,7.40
2023-04-23T02:42:58.694Z,7.70
2023-04-23T02:43:58.663Z,7.80
2023-04-23T02:44:58.633Z,7.20
2023-04-23T02:45:58.624Z,7.60
2023-04-23T02:46:58.714Z,7.50
2023-04-23T02:47:58.650Z,8.10
2023-04-23T02:48:58.611Z,7.90
2023-04-23T02:49:58.580Z,8.30
2023-04-23T02:50:58.613Z,7.60
2023-04-23T02:51:58.557Z,8.30
2023-04-23T02:52:58.559Z,8.00
2023-04-23T02:53:58.560Z,7.20
2023-04-23T02:54:58.554Z,7.60
2023-04-23T02:55:58.527Z,7.80
2023-04-23T02:56:58.512Z,8.30
2023-04-23T02:57:58.503Z,8.10
2023-04-23T02:59:30.424Z,9.60
2023-04-23T02:59:58.500Z,8.50
2023-04-23T03:00:58.516Z,8.90
2023-04-23T03:01:58.539Z,8.60
2023-04-23T03:02:59.572Z,7.60
2023-04-23T03:03:58.540Z,8.70
2023-04-23T03:04:58.435Z,8.20
2023-04-23T03:05:59.479Z,7.80
2023-04-23T03:06:58.412Z,8.70
2023-04-23T03:07:58.428Z,9.00
2023-04-23T03:08:58.393Z,8.30
2023-04-23T03:09:58.410Z,8.60
2023-04-23T03:10:58.377Z,8.60
2023-04-23T03:11:58.363Z,9.70
2023-04-23T03:12:58.345Z,8.30
2023-04-23T03:13:58.375Z,8.50
2023-04-23T03:14:58.356Z,8.30
2023-04-23T03:15:58.335Z,8.30
2023-04-23T03:16:58.395Z,8.60
2023-04-23T03:17:58.355Z,10.00
2023-04-23T03:18:58.302Z,9.20
2023-04-23T03:19:58.297Z,9.30
2023-04-23T03:20:58.302Z,9.80
2023-04-23T03:21:58.273Z,9.30
2023-04-23T03:22:58.267Z,9.40
2023-04-23T03:23:58.268Z,10.40
2023-04-23T03:24:58.231Z,10.60
2023-04-23T03:25:58.217Z,8.90
2023-04-23T03:26:58.202Z,9.70
2023-04-23T03:27:58.229Z,9.10
2023-04-23T03:28:58.229Z,9.90
2023-04-23T03:29:58.182Z,9.60
2023-04-23T03:30:58.269Z,9.70
2023-04-23T03:31:58.206Z,10.20
2023-04-23T03:32:58.166Z,9.70
2023-04-23T03:33:58.209Z,9.70
2023-04-23T03:34:58.149Z,9.50
2023-04-23T03:35:58.134Z,9.70
2023-04-23T03:36:58.128Z,9.30
2023-04-23T03:37:58.111Z,9.10
2023-04-23T03:38:59.091Z,9.20
2023-04-23T03:39:58.161Z,8.50
2023-04-23T03:40:58.104Z,10.20
2023-04-23T03:41:58.072Z,9.10
2023-04-23T03:42:58.064Z,9.30
2023-04-23T03:43:58.039Z,8.10
2023-04-23T03:44:58.047Z,7.80
2023-04-23T03:45:58.090Z,7.00
2023-04-23T03:46:58.032Z,6.10
2023-04-23T03:47:58.029Z,6.10
2023-04-23T03:48:57.994Z,5.30
2023-04-23T03:49:57.986Z,5.30
2023-04-23T03:50:58.037Z,4.70
2023-04-23T03:51:57.957Z,5.60
2023-04-23T03:52:58.014Z,4.20
2023-04-23T03:53:57.940Z,3.40
2023-04-23T03:54:57.935Z,2.80
2023-04-23T03:55:57.974Z,3.40
2023-04-23T03:56:57.910Z,2.40
2023-04-23T03:57:57.900Z,2.70
2023-04-23T03:58:57.890Z,3.00
2023-04-23T03:59:57.921Z,2.80
2023-04-23T04:00:57.918Z,2.10
2023-04-23T04:01:57.852Z,2.00
2023-04-23T04:02:57.920Z,3.80
2023-04-23T04:03:58.082Z,2.50
2023-04-23T04:04:58.156Z,2.40
2023-04-23T04:05:57.859Z,2.00
2023-04-23T04:06:57.838Z,2.50
2023-04-23T04:07:57.848Z,2.50
2023-04-23T04:08:57.788Z,2.50
2023-04-23T04:09:57.827Z,3.50
2023-04-23T04:10:57.777Z,2.70
2023-04-23T04:11:57.764Z,2.40
2023-04-23T04:12:57.776Z,2.90
2023-04-23T04:13:57.749Z,2.60
2023-04-23T04:14:57.728Z,2.80
2023-04-23T04:15:57.840Z,2.70
2023-04-23T04:16:57.709Z,2.90
2023-04-23T04:17:57.730Z,2.80
2023-04-23T04:18:57.731Z,3.60
2023-04-23T04:19:57.696Z,3.20
2023-04-23T04:20:57.707Z,3.40
2023-04-23T04:21:57.693Z,3.20
2023-04-23T04:22:57.660Z,3.50
2023-04-23T04:23:57.648Z,3.60
2023-04-23T04:24:57.679Z,4.00
2023-04-23T04:25:57.674Z,4.00
2023-04-23T04:26:57.616Z,3.30
2023-04-23T04:27:57.609Z,4.50
2023-04-23T04:28:57.594Z,5.40
2023-04-23T04:29:57.624Z,4.60
2023-04-23T04:30:57.609Z,4.10
2023-04-23T04:31:57.569Z,5.30
2023-04-23T04:32:57.587Z,4.40
2023-04-23T04:33:57.552Z,4.80
2023-04-23T04:34:57.533Z,4.20
2023-04-23T04:35:57.593Z,4.90
2023-04-23T04:36:57.507Z,5.10
2023-04-23T04:37:57.523Z,4.50
2023-04-23T04:38:57.527Z,4.80
2023-04-23T04:39:57.511Z,4.90
2023-04-23T04:40:57.491Z,4.30
2023-04-23T04:41:57.477Z,4.30
2023-04-23T04:42:57.501Z,4.40
2023-04-23T04:43:57.452Z,5.50
2023-04-23T04:44:57.494Z,4.90
2023-04-23T04:45:57.441Z,4.80
2023-04-23T04:46:57.444Z,4.60
2023-04-23T04:47:58.536Z,6.30
2023-04-23T04:48:57.417Z,5.40
2023-04-23T04:49:57.437Z,4.80
2023-04-23T04:50:57.391Z,4.90
2023-04-23T04:51:57.373Z,5.00
2023-04-23T04:52:57.353Z,5.00
2023-04-23T04:53:57.376Z,5.30
2023-04-23T04:54:57.348Z,5.10
2023-04-23T04:55:57.334Z,5.70
2023-04-23T04:56:57.350Z,5.60
2023-04-23T04:57:57.330Z,5.30
2023-04-23T04:58:57.315Z,5.80
2023-04-23T04:59:57.315Z,6.40
2023-04-23T05:00:57.322Z,6.10
2023-04-23T05:01:57.305Z,6.40
2023-04-23T05:02:57.395Z,6.60
2023-04-23T05:03:57.431Z,6.40
2023-04-23T05:04:57.266Z,5.80
2023-04-23T05:05:57.246Z,5.90
2023-04-23T05:06:57.245Z,6.20
2023-04-23T05:07:57.222Z,5.90
2023-04-23T05:08:57.224Z,5.90
2023-04-23T05:09:57.236Z,6.00
2023-04-23T05:10:57.190Z,6.00
2023-04-23T05:11:57.190Z,6.60
2023-04-23T05:12:57.169Z,6.10
2023-04-23T05:13:57.147Z,6.20
2023-04-23T05:14:57.162Z,7.70
2023-04-23T05:15:58.162Z,6.90
2023-04-23T05:16:57.167Z,7.60
2023-04-23T05:17:57.197Z,7.00
2023-04-23T05:18:57.135Z,7.30
2023-04-23T05:19:57.091Z,7.10
2023-04-23T05:20:57.154Z,7.10
2023-04-23T05:21:57.119Z,6.10
2023-04-23T05:22:57.085Z,6.80
2023-04-23T05:23:57.082Z,6.70
2023-04-23T05:24:57.077Z,6.60
2023-04-23T05:25:57.039Z,6.80
2023-04-23T05:26:57.045Z,6.50
2023-04-23T05:27:57.066Z,6.40
2023-04-23T05:28:57.006Z,6.80
2023-04-23T05:29:56.997Z,6.90
2023-04-23T05:30:56.985Z,6.60
2023-04-23T05:31:57.053Z,6.10
2023-04-23T05:32:57.011Z,6.10
2023-04-23T05:33:56.972Z,6.80
2023-04-23T05:34:56.971Z,6.80
2023-04-23T05:35:56.946Z,6.90
2023-04-23T05:36:56.952Z,6.80
2023-04-23T05:37:56.919Z,6.20
2023-04-23T05:38:56.914Z,5.70
2023-04-23T05:39:56.888Z,5.70
2023-04-23T05:40:56.902Z,6.20
2023-04-23T05:41:56.861Z,6.20
2023-04-23T05:42:56.866Z,7.20
2023-04-23T05:43:56.872Z,5.60
2023-04-23T05:44:56.853Z,5.50
2023-04-23T05:45:56.849Z,5.40
2023-04-23T05:46:56.823Z,5.80
2023-04-23T05:47:56.846Z,5.10
2023-04-23T05:48:56.806Z,5.40
2023-04-23T05:49:56.824Z,4.90
2023-04-23T05:50:56.792Z,4.50
2023-04-23T05:51:56.800Z,5.20
2023-04-23T05:52:56.777Z,5.20
2023-04-23T05:53:56.776Z,4.90
2023-04-23T05:54:56.723Z,5.10
2023-04-23T05:55:56.794Z,4.50
2023-04-23T05:56:56.713Z,4.80
2023-04-23T05:57:56.906Z,5.00
2023-04-23T05:58:56.689Z,5.00
2023-04-23T05:59:56.701Z,5.60
2023-04-23T06:00:56.688Z,4.90
2023-04-23T06:01:56.697Z,4.90
2023-04-23T06:02:56.829Z,5.10
2023-04-23T06:03:56.761Z,5.30
2023-04-23T06:04:56.803Z,4.50
2023-04-23T06:05:56.661Z,4.50
2023-04-23T06:06:56.644Z,4.60
2023-04-23T06:07:56.611Z,3.90
2023-04-23T06:08:56.592Z,3.90
2023-04-23T06:09:56.596Z,5.00
2023-04-23T06:10:56.597Z,4.40
2023-04-23T06:11:56.555Z,4.10
2023-04-23T06:12:56.567Z,4.30
2023-04-23T06:13:56.546Z,4.70
2023-04-23T06:14:56.537Z,4.80
2023-04-23T06:15:56.534Z,4.10
2023-04-23T06:16:56.546Z,5.30
2023-04-23T06:17:56.527Z,4.10
2023-04-23T06:18:56.504Z,4.00
2023-04-23T06:19:56.480Z,3.80
2023-04-23T06:20:56.462Z,3.50
2023-04-23T06:21:56.475Z,4.00
2023-04-23T06:22:56.475Z,3.70
2023-04-23T06:23:56.432Z,4.20
2023-04-23T06:24:56.437Z,3.80
2023-04-23T06:25:56.436Z,3.60
2023-04-23T06:26:56.413Z,3.30
2023-04-23T06:27:56.396Z,3.40
2023-04-23T06:28:56.425Z,3.50
2023-04-23T06:29:56.397Z,3.40
2023-04-23T06:30:56.371Z,5.60
2023-04-23T06:31:56.359Z,3.30
2023-04-23T06:32:56.399Z,3.20
2023-04-23T06:33:56.360Z,3.30
2023-04-23T06:35:01.553Z,3.00
2023-04-23T06:35:58.330Z,3.00
2023-04-23T06:36:56.311Z,4.60
2023-04-23T06:37:56.315Z,3.00
2023-04-23T06:38:56.277Z,3.30
2023-04-23T06:39:56.308Z,3.00
2023-04-23T06:40:56.273Z,3.30
2023-04-23T06:41:56.259Z,2.90
2023-04-23T06:42:56.242Z,3.10
2023-04-23T06:43:56.235Z,3.30
2023-04-23T06:44:56.248Z,3.20
2023-04-23T06:45:56.260Z,3.30
2023-04-23T06:46:56.221Z,3.60
2023-04-23T06:47:56.332Z,3.60
2023-04-23T06:48:56.204Z,3.50
2023-04-23T06:49:56.261Z,3.40
2023-04-23T06:50:56.223Z,3.60
2023-04-23T06:51:57.793Z,3.70
2023-04-23T06:52:57.154Z,3.60
2023-04-23T06:53:56.180Z,3.50
2023-04-23T06:54:56.132Z,3.90
2023-04-23T06:55:56.139Z,3.60
2023-04-23T06:56:56.181Z,3.60
2023-04-23T06:57:56.113Z,3.80
2023-04-23T06:58:56.161Z,3.80
2023-04-23T06:59:56.106Z,3.80
2023-04-23T07:00:56.091Z,3.80
2023-04-23T07:01:56.166Z,3.90
2023-04-23T07:02:56.119Z,4.10
2023-04-23T07:03:56.081Z,3.70
2023-04-23T07:04:56.037Z,3.80
2023-04-23T07:05:56.040Z,3.90
2023-04-23T07:06:56.272Z,3.90
2023-04-23T07:07:56.022Z,3.90
2023-04-23T07:08:57.006Z,3.70
2023-04-23T07:09:56.012Z,3.70
2023-04-23T07:10:55.993Z,3.50
2023-04-23T07:11:56.284Z,3.80
2023-04-23T07:12:56.025Z,2.90
2023-04-23T07:13:55.978Z,3.60
2023-04-23T07:14:56.012Z,5.00
2023-04-23T07:15:55.952Z,3.90
2023-04-23T07:16:55.989Z,3.60
2023-04-23T07:17:55.958Z,3.20
2023-04-23T07:18:55.914Z,3.20
2023-04-23T07:19:55.907Z,3.40
2023-04-23T07:20:55.934Z,3.30
2023-04-23T07:21:55.896Z,3.60
2023-04-23T07:22:55.893Z,3.60
2023-04-23T07:23:55.909Z,3.50
2023-04-23T07:24:56.119Z,3.90
2023-04-23T07:25:55.868Z,3.50
2023-04-23T07:26:55.849Z,3.60
2023-04-23T07:27:55.854Z,4.00
2023-04-23T07:28:55.818Z,4.10
2023-04-23T07:29:55.856Z,4.10
2023-04-23T07:30:55.807Z,4.60
2023-04-23T07:31:55.876Z,4.50
2023-04-23T07:32:55.891Z,4.30
2023-04-23T07:33:55.791Z,4.30
2023-04-23T07:34:55.790Z,4.70
2023-04-23T07:35:55.843Z,4.00
2023-04-23T07:36:55.764Z,3.90
2023-04-23T07:37:55.959Z,4.50
2023-04-23T07:38:55.733Z,4.00
2023-04-23T07:39:55.729Z,4.20
2023-04-23T07:40:55.729Z,4.40
2023-04-23T07:41:55.720Z,4.90
2023-04-23T07:42:55.683Z,4.80
2023-04-23T07:43:55.686Z,4.60
2023-04-23T07:44:55.685Z,4.90
2023-04-23T07:45:55.720Z,4.80
2023-04-23T07:46:55.647Z,4.20
2023-04-23T07:47:55.673Z,4.70
2023-04-23T07:48:55.633Z,4.90
2023-04-23T07:49:55.616Z,5.00
2023-04-23T07:50:55.607Z,4.60
2023-04-23T07:51:55.616Z,4.50
2023-04-23T07:52:55.609Z,4.20
2023-04-23T07:53:55.591Z,6.20
2023-04-23T07:54:55.589Z,4.50
2023-04-23T07:55:55.588Z,4.60
2023-04-23T07:56:55.562Z,5.00
2023-04-23T07:57:55.540Z,4.50
2023-04-23T07:58:55.523Z,4.80
2023-04-23T07:59:55.557Z,5.10
2023-04-23T08:00:55.523Z,3.80
2023-04-23T08:01:55.505Z,3.90
2023-04-23T08:02:55.564Z,4.50
2023-04-23T08:03:58.400Z,3.80
2023-04-23T08:04:55.560Z,3.90
2023-04-23T08:05:55.467Z,3.60
2023-04-23T08:06:55.455Z,4.10
2023-04-23T08:07:55.444Z,3.70
2023-04-23T08:08:55.443Z,4.10
2023-04-23T08:09:55.435Z,4.30
2023-04-23T08:10:55.417Z,3.90
2023-04-23T08:11:55.458Z,4.40
2023-04-23T08:12:55.398Z,3.90
2023-04-23T08:13:55.400Z,3.80
2023-04-23T08:14:55.366Z,4.10
2023-04-23T08:15:55.385Z,4.00
2023-04-23T08:16:55.387Z,4.20
2023-04-23T08:17:55.458Z,4.70
2023-04-23T08:19:05.005Z,4.00
2023-04-23T08:19:56.326Z,4.00
2023-04-23T08:20:55.332Z,4.30
2023-04-23T08:21:55.316Z,3.70
2023-04-23T08:22:55.319Z,3.40
2023-04-23T08:23:55.280Z,4.10
2023-04-23T08:24:55.301Z,4.00
2023-04-23T08:25:55.338Z,3.50
2023-04-23T08:26:55.276Z,3.40
2023-04-23T08:27:55.261Z,3.50
2023-04-23T08:28:55.261Z,4.10
2023-04-23T08:29:55.245Z,4.40
2023-04-23T08:30:55.222Z,3.80
2023-04-23T08:31:55.239Z,3.90
2023-04-23T08:32:55.315Z,3.50
2023-04-23T08:33:55.224Z,3.20
2023-04-23T08:34:55.183Z,3.50
2023-04-23T08:35:55.162Z,3.40
2023-04-23T08:36:55.153Z,3.60
2023-04-23T08:37:55.148Z,4.70
2023-04-23T08:38:55.174Z,3.50
2023-04-23T08:39:56.137Z,3.00
2023-04-23T08:40:55.121Z,3.20
2023-04-23T08:41:55.138Z,3.40
2023-04-23T08:42:55.105Z,3.00
2023-04-23T08:43:55.091Z,3.70
2023-04-23T08:44:55.189Z,3.10
2023-04-23T08:45:56.084Z,3.30
2023-04-23T08:46:55.193Z,3.50
2023-04-23T08:47:55.072Z,2.90
2023-04-23T08:48:55.045Z,3.50
2023-04-23T08:49:55.028Z,3.20
2023-04-23T08:50:55.035Z,2.90
2023-04-23T08:51:55.022Z,3.30
2023-04-23T08:52:55.023Z,3.20
2023-04-23T08:53:55.008Z,3.70
2023-04-23T08:54:55.031Z,5.70
2023-04-23T08:55:54.962Z,3.00
2023-04-23T08:56:54.969Z,3.40
2023-04-23T08:57:54.984Z,3.40
2023-04-23T08:58:57.021Z,3.20
2023-04-23T08:59:55.920Z,3.00
2023-04-23T09:00:54.987Z,3.20
2023-04-23T09:01:54.921Z,2.90
2023-04-23T09:02:55.153Z,3.20
2023-04-23T09:03:55.090Z,3.10
2023-04-23T09:04:56.298Z,3.00
2023-04-23T09:05:55.890Z,3.70
2023-04-23T09:06:54.853Z,3.50
2023-04-23T09:07:54.858Z,3.30
2023-04-23T09:08:54.835Z,3.40
2023-04-23T09:09:54.840Z,3.50
2023-04-23T09:10:54.827Z,3.20
2023-04-23T09:11:55.124Z,3.30
2023-04-23T09:12:55.799Z,3.50
2023-04-23T09:13:54.789Z,3.60
2023-04-23T09:14:54.850Z,3.50
2023-04-23T09:15:54.766Z,3.40
2023-04-23T09:16:54.840Z,5.10
2023-04-23T09:17:54.785Z,3.30
2023-04-23T09:18:54.755Z,3.80
2023-04-23T09:19:54.741Z,3.30
2023-04-23T09:20:54.725Z,3.50
2023-04-23T09:21:54.704Z,3.30
2023-04-23T09:22:54.722Z,2.90
2023-04-23T09:23:54.716Z,3.30
2023-04-23T09:24:54.726Z,3.70
2023-04-23T09:25:54.682Z,3.50
2023-04-23T09:26:54.661Z,4.10
2023-04-23T09:27:54.738Z,2.90
2023-04-23T09:28:54.630Z,3.50
2023-04-23T09:29:54.686Z,3.00
2023-04-23T09:30:54.619Z,3.40
2023-04-23T09:31:54.674Z,3.50
2023-04-23T09:32:54.775Z,3.40
2023-04-23T09:33:54.629Z,3.30
2023-04-23T09:34:54.601Z,3.30
2023-04-23T09:35:54.585Z,2.70
2023-04-23T09:36:54.572Z,3.40
2023-04-23T09:37:54.587Z,3.00
2023-04-23T09:38:54.588Z,2.90
2023-04-23T09:39:54.546Z,3.40
2023-04-23T09:40:54.531Z,3.10
2023-04-23T09:41:54.570Z,2.90
2023-04-23T09:42:54.926Z,3.20
2023-04-23T09:43:54.504Z,3.20
2023-04-23T09:44:54.503Z,3.20
2023-04-23T09:45:54.585Z,2.80
2023-04-23T09:46:54.480Z,3.30
2023-04-23T09:47:54.605Z,2.70
2023-04-23T09:48:54.476Z,2.90
2023-04-23T09:49:54.469Z,3.20
2023-04-23T09:50:54.426Z,3.80
2023-04-23T09:51:54.423Z,3.10
2023-04-23T09:52:54.419Z,4.00
2023-04-23T09:53:54.488Z,3.20
2023-04-23T09:54:54.385Z,3.60
2023-04-23T09:55:54.388Z,2.90
2023-04-23T09:56:54.383Z,3.20
2023-04-23T09:57:54.402Z,3.20
2023-04-23T09:58:54.357Z,3.30
2023-04-23T10:00:03.712Z,3.40
2023-04-23T10:00:56.363Z,3.00
2023-04-23T10:01:54.308Z,3.20
2023-04-23T10:02:54.413Z,3.10
2023-04-23T10:03:54.436Z,3.40
2023-04-23T10:05:00.850Z,3.00
2023-04-23T10:06:01.638Z,3.10
2023-04-23T10:07:13.829Z,3.60
2023-04-23T10:07:55.265Z,3.00
2023-04-23T10:08:54.271Z,2.90
2023-04-23T10:09:54.269Z,2.90
2023-04-23T10:11:05.975Z,2.80
2023-04-23T10:11:56.216Z,2.80
2023-04-23T10:12:55.561Z,3.10
2023-04-23T10:13:55.222Z,2.60
2023-04-23T10:14:54.208Z,2.70
2023-04-23T10:15:54.233Z,2.30
2023-04-23T10:16:54.284Z,2.70
2023-04-23T10:17:54.229Z,3.60
2023-04-23T10:18:54.177Z,2.70
2023-04-23T10:19:54.160Z,2.90
2023-04-23T10:20:54.147Z,2.70
2023-04-23T10:21:57.994Z,2.20
2023-04-23T10:22:56.154Z,2.80
2023-04-23T10:23:54.172Z,2.30
2023-04-23T10:24:54.091Z,3.10
2023-04-23T10:25:54.163Z,3.60
2023-04-23T10:26:54.092Z,2.70
2023-04-23T10:27:54.788Z,2.80
2023-04-23T10:28:55.051Z,3.20
2023-04-23T10:29:54.058Z,2.10
2023-04-23T10:30:54.073Z,2.50
2023-04-23T10:31:54.024Z,2.80
2023-04-23T10:32:54.067Z,3.70
2023-04-23T10:33:58.615Z,2.50
2023-04-23T10:34:55.996Z,2.50
2023-04-23T10:35:53.977Z,2.60
2023-04-23T10:36:53.973Z,2.50
2023-04-23T10:37:53.958Z,2.40
2023-04-23T10:38:58.401Z,2.20
2023-04-23T10:39:55.942Z,2.50
2023-04-23T10:40:53.939Z,2.40
2023-04-23T10:41:53.921Z,2.60
2023-04-23T10:42:54.508Z,2.60
2023-04-23T10:43:53.930Z,3.70
2023-04-23T10:45:00.873Z,3.10
2023-04-23T10:45:55.902Z,2.60
2023-04-23T10:46:53.953Z,2.40
2023-04-23T10:47:53.889Z,2.50
2023-04-23T10:48:53.863Z,3.40
2023-04-23T10:49:53.873Z,2.50
2023-04-23T10:51:09.716Z,2.60
2023-04-23T10:52:54.865Z,3.50
2023-04-23T10:53:53.832Z,2.30
2023-04-23T10:54:53.797Z,2.30
2023-04-23T10:55:53.796Z,2.20
2023-04-23T10:56:53.783Z,2.40
2023-04-23T10:57:53.782Z,2.40
2023-04-23T10:58:53.766Z,2.00
2023-04-23T10:59:53.762Z,2.70
2023-04-23T11:00:53.742Z,1.80
2023-04-23T11:01:53.790Z,2.30
2023-04-23T11:02:53.824Z,1.80
2023-04-23T11:03:53.857Z,2.20
2023-04-23T11:04:54.833Z,3.10
2023-04-23T11:05:53.730Z,2.10
2023-04-23T11:06:53.674Z,2.10
2023-04-23T11:07:53.661Z,2.00
2023-04-23T11:08:53.762Z,3.20
2023-04-23T11:09:53.661Z,2.40
2023-04-23T11:10:53.631Z,2.50
2023-04-23T11:11:53.627Z,2.70
2023-04-23T11:12:53.609Z,4.00
2023-04-23T11:13:53.634Z,1.90
2023-04-23T11:14:53.582Z,2.30
2023-04-23T11:15:53.583Z,2.20
2023-04-23T11:16:53.602Z,2.50
2023-04-23T11:17:53.580Z,2.10
2023-04-23T11:18:53.552Z,2.20
2023-04-23T11:19:53.578Z,3.30
2023-04-23T11:20:53.527Z,2.60
2023-04-23T11:21:53.516Z,2.20
2023-04-23T11:22:53.551Z,2.20
2023-04-23T11:23:53.494Z,1.70
2023-04-23T11:24:53.512Z,1.80
2023-04-23T11:25:53.503Z,2.20
2023-04-23T11:26:53.498Z,2.00
2023-04-23T11:27:53.457Z,1.50
2023-04-23T11:28:53.426Z,1.60
2023-04-23T11:29:53.458Z,2.20
2023-04-23T11:30:53.445Z,2.10
2023-04-23T11:32:02.665Z,1.80
2023-04-23T11:32:55.492Z,2.80
2023-04-23T11:33:53.399Z,2.10
2023-04-23T11:34:53.462Z,1.80
2023-04-23T11:35:53.431Z,5.00
2023-04-23T11:36:53.370Z,2.40
2023-04-23T11:37:53.366Z,1.80
2023-04-23T11:38:53.357Z,2.80
2023-04-23T11:39:53.387Z,1.80
2023-04-23T11:40:53.397Z,2.10
2023-04-23T11:41:54.106Z,2.10
2023-04-23T11:42:53.311Z,1.50
2023-04-23T11:43:53.298Z,2.20
2023-04-23T11:44:53.292Z,1.70
2023-04-23T11:45:53.371Z,1.90
2023-04-23T11:46:53.313Z,2.20
2023-04-23T11:47:53.292Z,1.80
2023-04-23T11:48:53.272Z,1.60
2023-04-23T11:49:53.253Z,1.50
2023-04-23T11:50:53.232Z,1.90
2023-04-23T11:51:53.255Z,1.60
2023-04-23T11:52:53.210Z,2.20
2023-04-23T11:53:53.254Z,1.70
2023-04-23T11:54:53.210Z,1.60
2023-04-23T11:55:53.192Z,1.50
2023-04-23T11:56:53.209Z,1.90
2023-04-23T11:57:53.169Z,1.80
2023-04-23T11:58:53.157Z,2.40
2023-04-23T11:59:53.147Z,2.30
2023-04-23T12:00:53.169Z,1.60
2023-04-23T12:01:53.120Z,2.40
2023-04-23T12:02:53.429Z,1.50
2023-04-23T12:03:53.163Z,1.70
2023-04-23T12:04:53.109Z,2.00
2023-04-23T12:05:53.136Z,2.00
2023-04-23T12:06:53.081Z,1.80
2023-04-23T12:07:53.087Z,1.70
2023-04-23T12:08:53.060Z,2.00
2023-04-23T12:09:53.049Z,1.60
2023-04-23T12:10:53.045Z,1.40
2023-04-23T12:11:53.065Z,1.70
2023-04-23T12:12:53.024Z,2.10
2023-04-23T12:13:53.000Z,1.40
2023-04-23T12:14:52.988Z,1.80
2023-04-23T12:15:53.058Z,2.40
2023-04-23T12:16:52.994Z,3.00
2023-04-23T12:17:53.098Z,1.80
2023-04-23T12:18:52.946Z,2.40
2023-04-23T12:19:52.938Z,1.50
2023-04-23T12:20:52.951Z,1.50
2023-04-23T12:21:52.937Z,2.60
2023-04-23T12:22:52.910Z,1.70
2023-04-23T12:23:52.893Z,1.40
2023-04-23T12:24:52.907Z,1.40
2023-04-23T12:25:52.900Z,2.10
2023-04-23T12:26:52.925Z,2.70
2023-04-23T12:27:52.880Z,2.10
2023-04-23T12:28:52.885Z,1.30
2023-04-23T12:29:52.886Z,3.10
2023-04-23T12:30:52.949Z,2.10
2023-04-23T12:31:52.834Z,1.40
2023-04-23T12:32:52.849Z,1.60
2023-04-23T12:33:52.869Z,2.60
2023-04-23T12:34:52.925Z,1.80
2023-04-23T12:35:52.806Z,1.30
2023-04-23T12:36:52.780Z,1.80
2023-04-23T12:37:52.773Z,2.90
2023-04-23T12:38:52.826Z,1.20
2023-04-23T12:39:52.775Z,1.70
2023-04-23T12:40:52.729Z,2.40
2023-04-23T12:41:52.745Z,1.50
2023-04-23T12:42:52.754Z,2.20
2023-04-23T12:43:52.730Z,1.80
2023-04-23T12:44:52.715Z,1.40
2023-04-23T12:45:52.700Z,1.00
2023-04-23T12:46:54.036Z,2.40
2023-04-23T12:47:52.746Z,2.80
2023-04-23T12:48:52.659Z,1.90
2023-04-23T12:49:52.641Z,1.40
2023-04-23T12:50:52.673Z,1.80
2023-04-23T12:51:52.700Z,1.70
2023-04-23T12:52:52.629Z,1.80
2023-04-23T12:53:52.615Z,2.80
2023-04-23T12:54:52.582Z,1.20
2023-04-23T12:55:52.607Z,1.50
2023-04-23T12:56:52.579Z,1.90
2023-04-23T12:57:52.554Z,1.50
2023-04-23T12:58:52.602Z,1.50
2023-04-23T12:59:52.545Z,1.60
2023-04-23T13:00:52.565Z,2.20
2023-04-23T13:01:52.566Z,1.70
2023-04-23T13:02:52.637Z,1.30
2023-04-23T13:03:53.681Z,2.80
2023-04-23T13:04:52.496Z,3.70
2023-04-23T13:05:52.480Z,2.20
2023-04-23T13:06:52.462Z,2.50
2023-04-23T13:07:52.442Z,1.40
2023-04-23T13:08:52.445Z,3.10
2023-04-23T13:09:52.448Z,1.80
2023-04-23T13:10:52.424Z,1.50
2023-04-23T13:11:52.434Z,2.80
2023-04-23T13:12:52.407Z,1.60
2023-04-23T13:13:52.433Z,1.00
2023-04-23T13:14:52.411Z,0.80
2023-04-23T13:15:52.376Z,1.30
2023-04-23T13:16:52.454Z,4.00
2023-04-23T13:17:52.488Z,1.70
2023-04-23T13:18:52.368Z,0.90